Time;durP1;ratioP1;P1;durP2;ratioP2;P2;SDS_P1;SDS_P2;PMS_P1;PMS_P2;Temp;Humidity;BMP_temperature;BMP_pressure;BME280_temperature;BME280_humidity;BME280_pressure;Samples;Min_cycle;Max_cycle;Signal;HPM_P1;HPM_P2
2024/04/11 00:01:46;;;;;;;51.03;7.45;;;;;;;5.64;100.00;99442.94;5333169;26;20000;-70
2024/04/11 00:04:12;;;;;;;96.70;9.38;;;;;;;5.78;100.00;99440.88;5333779;26;20040;-70
2024/04/11 00:06:39;;;;;;;67.95;7.82;;;;;;;5.84;100.00;99441.13;5333560;26;20499;-71
2024/04/11 00:09:04;;;;;;;68.72;8.13;;;;;;;5.95;100.00;99442.44;5336325;26;20015;-70
2024/04/11 00:11:29;;;;;;;58.47;7.03;;;;;;;5.77;100.00;99442.59;5334554;26;20392;-71
2024/04/11 00:13:55;;;;;;;54.20;6.80;;;;;;;5.56;100.00;99450.34;5334242;26;20005;-69
2024/04/11 00:16:20;;;;;;;53.67;7.50;;;;;;;5.67;100.00;99445.59;5335996;26;20077;-70
2024/04/11 00:18:45;;;;;;;55.95;7.68;;;;;;;5.60;100.00;99442.78;5335621;26;20298;-71
2024/04/11 00:21:10;;;;;;;78.80;8.45;;;;;;;5.51;100.00;99445.00;5332944;26;20009;-70
2024/04/11 00:23:36;;;;;;;67.90;8.00;;;;;;;5.61;100.00;99443.69;5337827;26;20015;-70
2024/04/11 00:26:02;;;;;;;78.25;9.20;;;;;;;5.32;100.00;99446.84;5336530;26;19997;-71
2024/04/11 00:28:28;;;;;;;54.55;7.43;;;;;;;5.34;100.00;99445.19;5337856;26;20301;-67
2024/04/11 00:30:53;;;;;;;90.72;9.05;;;;;;;5.21;100.00;99455.84;5336956;26;20007;-70
2024/04/11 00:33:19;;;;;;;54.85;7.50;;;;;;;5.26;100.00;99444.00;5334394;26;20487;-69
2024/04/11 00:35:52;;;;;;;61.35;7.55;;;;;;;5.07;100.00;99445.81;5334635;26;20012;-69
2024/04/11 00:38:21;;;;;;;72.80;8.73;;;;;;;5.25;100.00;99452.56;5329230;26;20012;-70
2024/04/11 00:40:56;;;;;;;79.68;8.73;;;;;;;5.16;100.00;99444.44;5332099;26;20015;-68
2024/04/11 00:43:26;;;;;;;51.83;6.60;;;;;;;5.23;100.00;99446.44;5331118;26;20004;-71
2024/04/11 00:45:54;;;;;;;51.30;8.10;;;;;;;5.31;100.00;99449.38;5333197;26;20016;-69
2024/04/11 00:48:21;;;;;;;58.38;6.97;;;;;;;5.52;100.00;99435.53;5332421;26;20008;-71
2024/04/11 00:50:47;;;;;;;61.42;7.80;;;;;;;5.52;100.00;99439.03;5335289;26;20004;-70
2024/04/11 00:53:14;;;;;;;92.32;9.30;;;;;;;5.77;100.00;99429.69;5334178;26;20510;-70
2024/04/11 00:55:41;;;;;;;61.47;7.70;;;;;;;5.20;100.00;99425.69;5336863;26;20396;-71
2024/04/11 00:58:08;;;;;;;74.13;8.25;;;;;;;5.23;100.00;99435.25;5332061;26;20020;-71
2024/04/11 01:00:33;;;;;;;76.57;8.15;;;;;;;5.33;100.00;99427.97;5332881;26;20070;-69
2024/04/11 01:02:59;;;;;;;68.53;7.43;;;;;;;5.23;100.00;99438.69;5333235;26;20414;-69
2024/04/11 01:05:24;;;;;;;45.53;6.93;;;;;;;5.49;100.00;99425.97;5335398;26;19998;-70
2024/04/11 01:07:56;;;;;;;56.38;6.97;;;;;;;5.33;100.00;99427.97;5331563;26;20023;-68
2024/04/11 01:10:25;;;;;;;60.33;7.68;;;;;;;5.27;100.00;99424.25;5332123;26;20019;-70
2024/04/11 01:12:51;;;;;;;55.45;7.47;;;;;;;5.14;100.00;99421.16;5335926;26;20019;-70
2024/04/11 01:15:17;;;;;;;84.78;9.40;;;;;;;5.18;100.00;99417.00;5335630;26;20000;-69
2024/04/11 01:17:48;;;;;;;61.80;8.15;;;;;;;5.46;100.00;99419.00;5331182;26;20059;-68
2024/04/11 01:20:14;;;;;;;77.80;8.55;;;;;;;5.66;100.00;99412.88;5336819;26;20082;-70
2024/04/11 01:22:43;;;;;;;87.35;9.13;;;;;;;5.46;100.00;99418.16;5332652;26;20051;-68
2024/04/11 01:25:09;;;;;;;72.10;7.95;;;;;;;5.43;100.00;99415.44;5333587;26;20570;-71
2024/04/11 01:27:37;;;;;;;57.53;7.88;;;;;;;5.62;100.00;99414.47;5332987;26;20621;-70
2024/04/11 01:30:03;;;;;;;54.35;7.78;;;;;;;5.67;100.00;99410.34;5337135;26;20000;-68
2024/04/11 01:32:31;;;;;;;48.33;7.28;;;;;;;5.24;100.00;99414.69;5334676;26;20593;-71
2024/04/11 01:34:56;;;;;;;68.93;9.20;;;;;;;4.83;100.00;99414.72;5331799;26;20608;-69
2024/04/11 01:37:28;;;;;;;60.38;8.07;;;;;;;4.52;100.00;99418.50;5337510;26;20076;-67
2024/04/11 01:39:54;;;;;;;59.22;7.25;;;;;;;4.59;100.00;99412.81;5337808;26;20017;-68
2024/04/11 01:42:19;;;;;;;81.32;9.25;;;;;;;4.59;100.00;99417.97;5331325;26;20394;-69
2024/04/11 01:44:44;;;;;;;60.95;7.40;;;;;;;5.00;100.00;99407.69;5332791;26;20011;-69
2024/04/11 01:47:14;;;;;;;94.78;10.13;;;;;;;5.04;100.00;99407.00;5335434;26;20001;-68
2024/04/11 01:49:42;;;;;;;84.78;9.07;;;;;;;4.88;100.00;99404.59;5336704;26;20538;-71
2024/04/11 01:52:10;;;;;;;90.82;9.73;;;;;;;4.91;100.00;99391.81;5331372;26;20091;-70
2024/04/11 01:54:39;;;;;;;54.63;7.05;;;;;;;4.98;100.00;99383.53;5339106;26;20540;-71
2024/04/11 01:57:06;;;;;;;67.85;8.38;;;;;;;5.12;100.00;99390.97;5334194;26;20010;-69
2024/04/11 01:59:32;;;;;;;51.70;8.15;;;;;;;4.96;100.00;99395.47;5337789;26;20020;-70
2024/04/11 02:01:57;;;;;;;57.08;10.80;;;;;;;4.89;100.00;99391.75;5337884;26;20546;-68
2024/04/11 02:04:23;;;;;;;50.88;7.55;;;;;;;4.80;100.00;99393.94;5338967;26;20411;-70
2024/04/11 02:06:51;;;;;;;45.00;6.57;;;;;;;4.92;100.00;99391.00;5337078;26;20016;-70
2024/04/11 02:09:22;;;;;;;87.82;9.68;;;;;;;5.03;100.00;99384.59;5336330;26;20062;-69
2024/04/11 02:11:51;;;;;;;70.90;7.95;;;;;;;4.89;100.00;99388.28;5336875;26;20349;-68
2024/04/11 02:14:18;;;;;;;89.68;8.77;;;;;;;4.65;100.00;99394.19;5339723;26;20086;-69
2024/04/11 02:16:44;;;;;;;61.25;7.97;;;;;;;4.51;100.00;99397.03;5333067;26;20053;-69
2024/04/11 02:19:11;;;;;;;73.35;8.32;;;;;;;4.88;100.00;99397.75;5338520;26;20016;-68
2024/04/11 02:21:40;;;;;;;58.72;7.47;;;;;;;4.42;100.00;99412.97;5332875;26;20001;-71
2024/04/11 02:24:06;;;;;;;86.30;9.35;;;;;;;4.28;100.00;99404.59;5334715;26;20476;-71
2024/04/11 02:26:34;;;;;;;52.97;8.00;;;;;;;3.93;100.00;99405.59;5333741;26;20353;-70
2024/04/11 02:29:00;;;;;;;71.22;8.43;;;;;;;4.04;100.00;99413.00;5335039;26;20023;-71
2024/04/11 02:31:26;;;;;;;65.18;8.73;;;;;;;4.25;100.00;99408.75;5331767;26;20493;-70
2024/04/11 02:33:53;;;;;;;54.00;7.28;;;;;;;4.41;100.00;99398.31;5332659;26;20081;-70
2024/04/11 02:36:19;;;;;;;78.15;8.50;;;;;;;4.15;100.00;99407.44;5333956;26;20001;-71
2024/04/11 02:38:45;;;;;;;79.10;8.57;;;;;;;4.46;100.00;99410.53;5337275;26;20049;-67
2024/04/11 02:41:10;;;;;;;85.22;9.77;;;;;;;4.30;100.00;99410.72;5335035;26;20008;-70
2024/04/11 02:43:39;;;;;;;46.83;7.65;;;;;;;4.18;100.00;99407.59;5338277;26;20006;-71
2024/04/11 02:46:13;;;;;;;83.28;9.25;;;;;;;4.12;100.00;99415.06;5333956;26;20005;-69
2024/04/11 02:48:38;;;;;;;55.45;7.43;;;;;;;4.02;100.00;99416.31;5335687;26;20005;-71
2024/04/11 02:51:04;;;;;;;94.53;9.55;;;;;;;4.28;100.00;99412.34;5332875;26;20380;-68
2024/04/11 02:53:29;;;;;;;45.08;6.90;;;;;;;4.65;100.00;99410.53;5338091;26;20511;-68
2024/04/11 02:55:54;;;;;;;52.15;7.25;;;;;;;4.32;100.00;99409.91;5334185;26;20028;-69
2024/04/11 02:58:20;;;;;;;82.10;9.13;;;;;;;4.54;100.00;99416.91;5337548;26;20013;-69
2024/04/11 03:00:46;;;;;;;76.07;8.32;;;;;;;4.94;100.00;99412.59;5336637;26;20574;-68
2024/04/11 03:03:11;;;;;;;102.10;9.95;;;;;;;4.60;100.00;99416.28;5334421;26;20015;-70
2024/04/11 03:05:37;;;;;;;62.67;7.70;;;;;;;4.41;100.00;99428.34;5333485;26;20629;-69
2024/04/11 03:08:06;;;;;;;65.15;8.27;;;;;;;4.51;100.00;99421.91;5338844;26;20035;-68
2024/04/11 03:10:31;;;;;;;45.78;7.28;;;;;;;4.74;100.00;99428.06;5336162;26;20087;-70
2024/04/11 03:12:57;;;;;;;52.20;7.35;;;;;;;4.82;100.00;99420.66;5332378;26;20024;-70
2024/04/11 03:15:22;;;;;;;89.30;9.60;;;;;;;4.69;100.00;99430.44;5346526;26;20012;-69
2024/04/11 03:17:48;;;;;;;52.63;7.70;;;;;;;4.57;100.00;99427.34;5337067;26;20572;-70
2024/04/11 03:20:17;;;;;;;113.03;10.80;;;;;;;4.28;100.00;99425.22;5335538;26;20009;-70
2024/04/11 03:22:42;;;;;;;65.25;8.23;;;;;;;4.28;100.00;99438.09;5333684;26;20551;-69
2024/04/11 03:25:08;;;;;;;72.78;8.52;;;;;;;4.28;100.00;99438.09;5337998;26;20016;-70
2024/04/11 03:27:33;;;;;;;69.95;8.77;;;;;;;4.47;100.00;99441.53;5334072;26;20360;-72
2024/04/11 03:29:59;;;;;;;61.70;8.52;;;;;;;4.52;100.00;99433.97;5337398;26;20078;-70
2024/04/11 03:32:24;;;;;;;85.63;9.15;;;;;;;4.24;100.00;99436.22;5333404;26;20917;-68
2024/04/11 03:34:50;;;;;;;71.22;8.40;;;;;;;4.01;100.00;99435.16;5335805;26;19996;-70
2024/04/11 03:37:16;;;;;;;107.22;9.95;;;;;;;3.96;100.00;99442.66;5333120;26;19997;-69
2024/04/11 03:39:43;;;;;;;65.07;7.90;;;;;;;4.38;100.00;99436.81;5336441;26;20004;-70
2024/04/11 03:42:08;;;;;;;64.40;7.95;;;;;;;3.81;100.00;99441.94;5333369;26;20002;-68
2024/04/11 03:44:35;;;;;;;61.35;8.13;;;;;;;3.82;100.00;99447.16;5335075;26;20001;-69
2024/04/11 03:47:00;;;;;;;65.63;8.20;;;;;;;4.12;100.00;99448.53;5330756;26;20012;-71
2024/04/11 03:49:25;;;;;;;70.40;8.27;;;;;;;4.40;100.00;99450.69;5338933;26;22685;-69
2024/04/11 03:51:51;;;;;;;53.67;8.35;;;;;;;4.21;100.00;99448.06;5330738;26;20019;-68
2024/04/11 03:54:16;;;;;;;83.53;9.20;;;;;;;4.26;100.00;99457.78;5336651;26;20011;-68
2024/04/11 03:56:42;;;;;;;62.35;8.45;;;;;;;4.30;100.00;99463.94;5334724;26;20008;-71
2024/04/11 03:59:08;;;;;;;93.57;10.57;;;;;;;4.21;100.00;99461.84;5337131;26;20048;-68
2024/04/11 04:01:33;;;;;;;74.30;9.23;;;;;;;4.66;100.00;99456.09;5334648;26;20008;-69
2024/04/11 04:04:03;;;;;;;70.28;9.75;;;;;;;4.76;100.00;99461.66;5334304;26;20013;-70
2024/04/11 04:06:29;;;;;;;62.53;10.05;;;;;;;5.00;100.00;99459.25;5332381;26;19996;-68
2024/04/11 04:08:55;;;;;;;49.08;6.65;;;;;;;4.30;100.00;99454.53;5336017;26;20008;-70
2024/04/11 04:11:20;;;;;;;60.92;8.38;;;;;;;4.25;100.00;99461.16;5328248;26;20295;-71
2024/04/11 04:13:47;;;;;;;54.90;8.20;;;;;;;4.20;100.00;99462.66;5331523;26;20514;-68
2024/04/11 04:16:17;;;;;;;83.18;9.20;;;;;;;4.18;100.00;99461.69;5335351;26;20468;-67
2024/04/11 04:18:52;;;;;;;76.63;8.40;;;;;;;4.16;100.00;99471.06;5334011;26;20083;-69
2024/04/11 04:21:20;;;;;;;75.30;8.32;;;;;;;3.98;100.00;99471.06;5329130;26;20000;-69
2024/04/11 04:23:54;;;;;;;58.47;7.57;;;;;;;4.02;100.00;99471.25;5333454;26;20001;-70
2024/04/11 04:26:21;;;;;;;73.03;8.68;;;;;;;4.00;100.00;99470.31;5330598;26;20462;-72
2024/04/11 04:28:46;;;;;;;53.75;7.60;;;;;;;4.38;100.00;99472.88;5332687;26;20059;-70
2024/04/11 04:31:11;;;;;;;92.10;9.82;;;;;;;4.13;100.00;99481.19;5327290;26;20004;-72
2024/04/11 04:33:37;;;;;;;67.60;9.30;;;;;;;4.56;100.00;99479.69;5334244;26;20598;-69
2024/04/11 04:36:03;;;;;;;65.72;8.07;;;;;;;4.28;100.00;99483.59;5336016;26;20493;-72
2024/04/11 04:38:29;;;;;;;58.38;7.68;;;;;;;4.90;100.00;99482.91;5331596;26;20027;-72
2024/04/11 04:40:55;;;;;;;107.97;10.88;;;;;;;4.79;100.00;99492.75;5334104;26;20008;-70
2024/04/11 04:43:20;;;;;;;83.20;9.70;;;;;;;4.75;100.00;99489.13;5335005;26;20016;-71
2024/04/11 04:45:46;;;;;;;61.55;8.27;;;;;;;4.69;100.00;99484.56;5336462;26;20000;-71
2024/04/11 04:48:12;;;;;;;93.55;10.13;;;;;;;4.96;100.00;99490.88;5335377;26;20455;-70
2024/04/11 04:50:37;;;;;;;70.72;8.65;;;;;;;5.06;100.00;99480.13;5332899;26;20020;-72
2024/04/11 04:53:03;;;;;;;59.63;8.65;;;;;;;5.13;100.00;99489.06;5333137;26;20475;-70
2024/04/11 04:55:31;;;;;;;56.58;8.38;;;;;;;4.96;100.00;99498.63;5333280;26;20001;-70
2024/04/11 04:57:57;;;;;;;61.47;8.35;;;;;;;5.30;100.00;99488.84;5332571;26;20048;-72
2024/04/11 05:00:24;;;;;;;95.03;9.95;;;;;;;5.05;100.00;99499.00;5329760;26;20300;-72
2024/04/11 05:02:52;;;;;;;55.95;8.10;;;;;;;4.97;100.00;99489.19;5330404;26;19996;-72
2024/04/11 05:05:18;;;;;;;84.15;9.18;;;;;;;5.69;100.00;99493.03;5332374;26;20019;-69
2024/04/11 05:07:45;;;;;;;68.82;9.05;;;;;;;6.30;100.00;99495.41;5334967;26;20008;-73
2024/04/11 05:10:11;;;;;;;77.32;9.63;;;;;;;6.81;100.00;99496.41;5332691;26;20015;-72
2024/04/11 05:12:43;;;;;;;58.85;8.23;;;;;;;6.85;100.00;99488.84;5333881;26;20681;-69
2024/04/11 05:15:12;;;;;;;88.10;9.93;;;;;;;7.39;100.00;99491.53;5327983;26;20475;-72
2024/04/11 05:17:41;;;;;;;53.17;9.13;;;;;;;7.86;100.00;99491.31;5334169;26;20056;-71
2024/04/11 05:20:17;;;;;;;69.88;8.68;;;;;;;8.37;100.00;99496.31;5332142;26;19996;-70
2024/04/11 05:22:46;;;;;;;56.42;8.25;;;;;;;9.37;100.00;99499.97;5334994;26;20511;-72
2024/04/11 05:25:14;;;;;;;67.63;9.77;;;;;;;9.87;100.00;99495.97;5333167;26;20383;-71
2024/04/11 05:27:39;;;;;;;71.38;9.82;;;;;;;10.74;100.00;99492.72;5335596;26;20005;-71
2024/04/11 05:30:10;;;;;;;63.38;9.27;;;;;;;11.14;100.00;99489.13;5335746;26;20011;-71
2024/04/11 05:32:37;;;;;;;50.40;8.13;;;;;;;12.51;100.00;99486.06;5332969;26;20023;-71
2024/04/11 05:35:06;;;;;;;56.22;8.68;;;;;;;13.38;100.00;99483.50;5333534;26;20009;-71
2024/04/11 05:37:31;;;;;;;43.85;6.72;;;;;;;13.72;100.00;99486.44;5337530;26;20074;-71
2024/04/11 05:39:58;;;;;;;40.08;6.78;;;;;;;13.28;100.00;99495.59;5335906;26;20464;-71
2024/04/11 05:42:25;;;;;;;72.32;9.23;;;;;;;14.21;100.00;99489.41;5329377;26;20000;-70
2024/04/11 05:44:50;;;;;;;38.92;7.25;;;;;;;14.75;100.00;99491.38;5341554;26;20445;-71
2024/04/11 05:47:15;;;;;;;59.83;9.02;;;;;;;15.68;100.00;99494.22;5335404;26;20549;-71
2024/04/11 05:49:41;;;;;;;61.83;9.88;;;;;;;13.71;100.00;99496.88;5334939;26;20463;-71
2024/04/11 05:52:08;;;;;;;55.40;8.55;;;;;;;15.54;98.50;99491.59;5333581;26;20124;-72
2024/04/11 05:54:33;;;;;;;44.55;7.97;;;;;;;14.69;92.90;99490.50;5334957;26;20356;-71
2024/04/11 05:56:59;;;;;;;55.25;9.60;;;;;;;15.80;88.38;99503.81;5338027;26;20342;-72
2024/04/11 05:59:24;;;;;;;64.50;8.73;;;;;;;15.40;90.08;99498.59;5339462;26;20020;-73
2024/04/11 06:01:50;;;;;;;42.40;7.90;;;;;;;15.60;86.93;99495.97;5328656;26;20016;-72
2024/04/11 06:04:16;;;;;;;60.58;9.55;;;;;;;17.05;75.01;99500.91;5334543;26;20019;-72
2024/04/11 06:06:41;;;;;;;39.88;7.70;;;;;;;17.83;64.07;99495.97;5337529;26;20001;-71
2024/04/11 06:09:08;;;;;;;48.33;8.00;;;;;;;17.88;58.88;99489.75;5338927;26;20001;-71
2024/04/11 06:11:34;;;;;;;52.35;8.48;;;;;;;18.16;60.71;99487.78;5334061;26;20827;-71
2024/04/11 06:14:00;;;;;;;39.20;7.55;;;;;;;17.54;61.92;99497.06;5335757;26;20420;-71
2024/04/11 06:16:25;;;;;;;65.45;9.43;;;;;;;17.09;61.25;99497.38;5331769;26;20008;-70
2024/04/11 06:18:54;;;;;;;45.17;7.95;;;;;;;18.39;56.50;99489.28;5338588;26;20012;-71
2024/04/11 06:21:31;;;;;;;52.70;8.52;;;;;;;19.73;51.67;99486.56;5332179;26;20349;-72
2024/04/11 06:23:57;;;;;;;45.70;7.65;;;;;;;19.80;49.19;99493.50;5335891;26;20527;-71
2024/04/11 06:26:22;;;;;;;37.20;7.28;;;;;;;19.19;49.33;99493.59;5337032;26;20009;-72
2024/04/11 06:28:49;;;;;;;33.90;7.00;;;;;;;19.29;50.02;99489.91;5337242;26;20544;-72
2024/04/11 06:31:17;;;;;;;38.25;6.80;;;;;;;19.45;50.98;99501.09;5333703;26;20373;-70
2024/04/11 06:33:43;;;;;;;37.42;6.70;;;;;;;18.08;51.22;99494.88;5335816;26;20012;-71
2024/04/11 06:36:12;;;;;;;36.67;6.97;;;;;;;18.96;52.23;99495.59;5336791;26;20004;-71
2024/04/11 06:38:38;;;;;;;43.40;7.22;;;;;;;20.64;48.01;99493.72;5331698;26;20180;-72
2024/04/11 06:41:03;;;;;;;64.68;8.82;;;;;;;21.93;44.37;99488.16;5336328;26;20429;-70
2024/04/11 06:43:31;;;;;;;47.53;8.02;;;;;;;23.87;40.00;99493.06;5336062;26;20000;-72
2024/04/11 06:45:57;;;;;;;47.03;8.23;;;;;;;24.04;38.88;99493.34;5335508;26;20124;-70
2024/04/11 06:48:23;;;;;;;49.42;8.23;;;;;;;25.22;37.54;99495.28;5334503;26;20566;-69
2024/04/11 06:50:49;;;;;;;34.97;7.72;;;;;;;25.89;35.83;99494.38;5333335;26;20014;-68
2024/04/11 06:53:17;;;;;;;43.33;7.40;;;;;;;26.97;34.94;99493.19;5332307;26;20517;-72
2024/04/11 06:55:45;;;;;;;32.38;6.88;;;;;;;26.76;34.29;99496.75;5334248;26;20052;-71
2024/04/11 06:58:11;;;;;;;38.63;7.45;;;;;;;24.86;34.95;99503.78;5332192;26;20054;-72
2024/04/11 07:00:36;;;;;;;44.08;8.05;;;;;;;26.39;34.95;99503.78;5334249;26;20000;-69
2024/04/11 07:03:26;;;;;;;28.48;7.40;;;;;;;26.49;34.79;99502.44;5333651;26;20591;-69
2024/04/11 07:05:55;;;;;;;37.95;7.38;;;;;;;27.84;32.91;99507.69;5330599;26;20001;-72
2024/04/11 07:08:29;;;;;;;47.25;7.63;;;;;;;27.18;33.59;99496.63;5334309;26;20105;-69
2024/04/11 07:11:19;;;;;;;51.85;8.27;;;;;;;25.96;34.58;99499.38;5330561;26;20084;-68
2024/04/11 07:13:49;;;;;;;34.60;6.70;;;;;;;27.97;32.74;99499.03;5301921;26;20002;-71
2024/04/11 07:16:16;;;;;;;45.70;8.05;;;;;;;27.22;33.66;99498.22;5298438;26;20056;-68
2024/04/11 07:18:54;;;;;;;25.00;6.07;;;;;;;28.65;31.12;99497.28;5296178;26;20451;-69
2024/04/11 07:21:25;;;;;;;42.97;7.35;;;;;;;29.90;29.89;99498.38;5296212;26;20001;-69
2024/04/11 07:23:54;;;;;;;24.92;5.70;;;;;;;28.95;30.14;99497.41;5301054;26;20009;-71
2024/04/11 07:26:22;;;;;;;38.92;7.40;;;;;;;28.38;32.04;99497.81;5297039;26;20009;-69
2024/04/11 07:28:48;;;;;;;34.25;6.45;;;;;;;29.29;29.98;99507.19;5298472;26;21348;-69
2024/04/11 07:31:14;;;;;;;35.00;6.50;;;;;;;27.57;32.35;99507.25;5301056;26;20008;-69
2024/04/11 07:33:40;;;;;;;29.52;6.40;;;;;;;30.87;29.14;99501.44;5300604;26;20020;-68
2024/04/11 07:36:07;;;;;;;42.78;7.50;;;;;;;27.81;31.67;99515.88;5299220;26;20485;-69
2024/04/11 07:38:34;;;;;;;39.10;6.85;;;;;;;31.94;28.45;99507.03;5299649;26;20005;-69
2024/04/11 07:41:12;;;;;;;53.47;8.20;;;;;;;32.17;27.70;99518.88;5298402;26;20001;-70
2024/04/11 07:43:37;;;;;;;30.30;6.93;;;;;;;32.17;27.19;99518.03;5296660;26;20009;-70
2024/04/11 07:46:04;;;;;;;29.83;6.25;;;;;;;32.45;26.32;99516.13;5299080;26;20434;-70
2024/04/11 07:48:32;;;;;;;39.72;7.40;;;;;;;30.23;27.87;99511.56;5296529;26;20026;-71
2024/04/11 07:51:05;;;;;;;42.25;7.43;;;;;;;30.29;28.52;99518.38;5299353;26;20002;-70
2024/04/11 07:53:31;;;;;;;37.88;6.70;;;;;;;32.24;26.10;99505.84;5298227;26;20074;-70
2024/04/11 07:55:57;;;;;;;40.58;6.93;;;;;;;32.27;26.48;99516.41;5294347;26;20021;-72
2024/04/11 07:58:23;;;;;;;41.47;7.72;;;;;;;30.91;26.80;99524.41;5297864;26;20037;-69
2024/04/11 08:00:50;;;;;;;31.42;5.93;;;;;;;29.41;29.11;99519.00;5306377;26;20500;-69
2024/04/11 08:03:17;;;;;;;43.22;7.90;;;;;;;31.03;26.01;99515.56;5333117;26;20484;-70
2024/04/11 08:05:45;;;;;;;36.40;6.40;;;;;;;31.90;26.61;99516.25;5333466;26;20001;-69
2024/04/11 08:08:12;;;;;;;38.70;6.63;;;;;;;29.73;27.34;99519.00;5331356;26;20262;-71
2024/04/11 08:10:38;;;;;;;39.70;6.72;;;;;;;31.19;26.88;99517.28;5328301;26;20308;-70
2024/04/11 08:13:04;;;;;;;29.17;6.10;;;;;;;30.36;26.31;99513.50;5332647;26;20012;-71
2024/04/11 08:15:30;;;;;;;36.38;6.82;;;;;;;32.25;24.65;99512.13;5328090;26;20056;-69
2024/04/11 08:17:56;;;;;;;37.25;6.90;;;;;;;34.27;23.66;99510.88;5333834;26;20000;-70
2024/04/11 08:20:22;;;;;;;33.63;6.65;;;;;;;33.22;24.84;99511.56;5330457;26;20011;-70
2024/04/11 08:22:47;;;;;;;24.50;5.47;;;;;;;33.03;23.67;99517.44;5342147;26;20070;-69
2024/04/11 08:25:13;;;;;;;45.75;7.55;;;;;;;33.40;23.77;99517.44;5331276;26;20001;-70
2024/04/11 08:27:42;;;;;;;30.83;5.90;;;;;;;33.21;23.02;99517.94;5329015;26;20048;-69
2024/04/11 08:30:09;;;;;;;27.17;5.65;;;;;;;33.76;22.91;99521.03;5332262;26;20782;-71
2024/04/11 08:32:35;;;;;;;52.40;7.63;;;;;;;31.61;25.15;99524.47;5329628;26;20412;-70
2024/04/11 08:35:01;;;;;;;38.88;6.07;;;;;;;30.46;26.05;99524.53;5334487;26;20004;-72
2024/04/11 08:37:28;;;;;;;57.75;8.18;;;;;;;30.74;26.01;99529.06;5329551;26;20443;-70
2024/04/11 08:39:54;;;;;;;36.85;6.90;;;;;;;32.41;24.85;99520.84;5333358;26;20232;-70
2024/04/11 08:42:20;;;;;;;37.78;6.22;;;;;;;32.97;24.70;99524.13;5330580;26;20008;-69
2024/04/11 08:44:47;;;;;;;39.35;6.45;;;;;;;34.63;23.14;99515.34;5330295;26;20075;-69
2024/04/11 08:47:13;;;;;;;59.88;8.05;;;;;;;33.36;23.73;99527.56;5331245;26;20000;-71
2024/04/11 08:49:38;;;;;;;63.08;8.20;;;;;;;34.00;22.75;99527.34;5327688;26;20012;-69
2024/04/11 08:52:06;;;;;;;41.33;7.07;;;;;;;33.87;23.42;99528.31;5330560;26;20012;-72
2024/04/11 08:54:32;;;;;;;66.00;8.45;;;;;;;32.49;23.40;99523.00;5333660;26;20004;-70
2024/04/11 08:56:57;;;;;;;38.30;6.25;;;;;;;34.88;21.94;99526.88;5335586;26;20522;-70
2024/04/11 08:59:24;;;;;;;47.65;7.32;;;;;;;34.61;22.24;99531.66;5333400;26;20444;-69
2024/04/11 09:01:50;;;;;;;32.90;6.40;;;;;;;34.30;22.30;99515.19;5337971;26;20000;-71
2024/04/11 09:04:17;;;;;;;40.60;6.57;;;;;;;33.52;22.89;99521.03;5335302;26;20011;-70
2024/04/11 09:06:42;;;;;;;39.00;6.60;;;;;;;32.85;24.24;99521.34;5332617;26;20000;-71
2024/04/11 09:09:15;;;;;;;46.47;6.60;;;;;;;32.19;23.15;99518.78;5335593;26;20027;-69
2024/04/11 09:11:44;;;;;;;38.17;5.97;;;;;;;28.87;26.78;99526.41;5333383;26;23325;-70
2024/04/11 09:14:14;;;;;;;52.17;7.22;;;;;;;30.60;25.20;99516.47;5334020;26;20004;-70
2024/04/11 09:16:39;;;;;;;62.83;8.43;;;;;;;29.98;24.88;99518.38;5331996;26;20004;-71
2024/04/11 09:19:09;;;;;;;40.05;6.57;;;;;;;32.08;23.35;99523.09;5333387;26;20000;-71
2024/04/11 09:21:42;;;;;;;62.83;8.57;;;;;;;29.58;25.54;99518.09;5330696;26;20436;-69
2024/04/11 09:24:14;;;;;;;40.03;6.60;;;;;;;32.83;23.34;99515.22;5334808;26;20014;-70
2024/04/11 09:26:43;;;;;;;76.18;9.18;;;;;;;32.39;23.08;99505.78;5332359;26;20004;-70
2024/04/11 09:29:11;;;;;;;41.13;6.35;;;;;;;32.11;23.44;99516.63;5333758;26;20001;-70
2024/04/11 09:31:37;;;;;;;58.72;7.63;;;;;;;32.03;23.83;99508.22;5331311;26;19997;-70
2024/04/11 09:34:13;;;;;;;50.25;7.32;;;;;;;29.36;26.01;99511.25;5334130;26;19996;-70
2024/04/11 09:36:47;;;;;;;67.07;8.73;;;;;;;30.84;24.46;99504.31;5331715;26;20479;-70
2024/04/11 09:39:41;;;;;;;65.03;8.52;;;;;;;30.90;26.26;99510.16;5331507;26;20036;-70
2024/04/11 09:42:06;;;;;;;33.55;5.75;;;;;;;31.80;23.74;99511.47;5330693;26;19997;-70
2024/04/11 09:44:39;;;;;;;60.67;8.20;;;;;;;32.98;23.48;99520.44;5331161;26;20033;-70
2024/04/11 09:47:09;;;;;;;51.28;6.95;;;;;;;31.46;25.28;99521.81;5333972;26;20009;-72
2024/04/11 09:49:37;;;;;;;57.55;8.10;;;;;;;32.60;22.93;99512.34;5335550;26;20001;-72
2024/04/11 09:52:03;;;;;;;42.85;6.70;;;;;;;30.11;25.47;99525.69;5329377;26;20308;-71
2024/04/11 09:54:30;;;;;;;52.85;7.05;;;;;;;31.55;25.92;99520.38;5334751;26;20009;-71
2024/04/11 09:56:56;;;;;;;45.22;6.72;;;;;;;30.25;26.17;99520.38;5334465;26;20353;-70
2024/04/11 09:59:21;;;;;;;40.92;6.45;;;;;;;31.44;24.84;99511.16;5338547;26;20005;-71
2024/04/11 10:01:48;;;;;;;45.40;6.95;;;;;;;33.02;23.70;99521.13;5331273;26;20005;-71
2024/04/11 10:04:24;;;;;;;61.38;8.32;;;;;;;29.70;25.84;99525.41;5329794;26;20016;-71
2024/04/11 10:06:53;;;;;;;46.17;6.90;;;;;;;31.93;25.14;99514.25;5328607;26;20372;-68
2024/04/11 10:09:18;;;;;;;49.65;6.68;;;;;;;30.42;25.88;99521.16;5338146;26;20098;-71
2024/04/11 10:11:51;;;;;;;43.63;6.65;;;;;;;30.08;26.53;99523.19;5330073;26;20827;-70
2024/04/11 10:14:22;;;;;;;47.55;6.95;;;;;;;30.14;26.33;99521.03;5335794;26;20382;-69
2024/04/11 10:16:49;;;;;;;56.92;7.97;;;;;;;28.88;27.04;99522.81;5328026;26;20328;-71
2024/04/11 10:19:26;;;;;;;46.80;6.90;;;;;;;29.72;27.83;99511.88;5332197;26;20008;-69
2024/04/11 10:21:52;;;;;;;48.40;7.85;;;;;;;30.30;26.39;99511.19;5327231;26;19998;-70
2024/04/11 10:24:23;;;;;;;49.03;7.10;;;;;;;29.94;26.38;99511.47;5333777;26;20251;-72
2024/04/11 10:26:50;;;;;;;37.72;6.38;;;;;;;29.49;26.34;99514.94;5359196;26;20008;-70
2024/04/11 10:29:19;;;;;;;61.42;8.15;;;;;;;30.46;25.02;99519.16;5332493;26;20388;-72
2024/04/11 10:31:47;;;;;;;68.47;8.40;;;;;;;29.34;25.89;99518.50;5332332;26;20004;-70
2024/04/11 10:34:19;;;;;;;46.97;6.72;;;;;;;28.67;27.56;99517.66;5334895;26;20792;-72
2024/04/11 10:36:54;;;;;;;73.43;9.10;;;;;;;28.53;27.39;99520.22;5333422;26;20525;-69
2024/04/11 10:39:20;;;;;;;40.20;6.57;;;;;;;27.29;27.42;99514.81;5332933;26;20580;-69
2024/04/11 10:41:52;;;;;;;52.00;7.78;;;;;;;26.76;27.94;99510.09;5328553;26;20015;-71
2024/04/11 10:44:18;;;;;;;53.53;7.50;;;;;;;26.88;27.88;99514.03;5335299;26;20019;-69
2024/04/11 10:46:44;;;;;;;63.88;8.30;;;;;;;27.34;27.35;99515.44;5335927;26;20004;-69
2024/04/11 10:49:15;;;;;;;68.82;9.02;;;;;;;27.07;27.47;99506.97;5334052;26;20356;-69
2024/04/11 10:51:47;;;;;;;68.18;9.07;;;;;;;26.84;28.16;99504.44;5330325;26;20001;-72
2024/04/11 10:54:12;;;;;;;56.90;7.80;;;;;;;26.84;28.32;99519.56;5332369;26;20484;-71
2024/04/11 10:56:41;;;;;;;81.43;9.43;;;;;;;25.89;28.53;99521.91;5331176;26;20001;-73
2024/04/11 10:59:14;;;;;;;59.33;7.50;;;;;;;26.71;28.25;99517.47;5330797;26;20472;-70
2024/04/11 11:01:47;;;;;;;83.13;10.43;;;;;;;26.67;27.25;99520.31;5337815;26;20023;-70
2024/04/11 11:04:14;;;;;;;61.95;7.80;;;;;;;26.31;28.41;99513.94;5338957;26;20474;-69
2024/04/11 11:06:47;;;;;;;71.57;8.30;;;;;;;25.97;28.22;99506.44;5330927;26;20011;-71
2024/04/11 11:09:17;;;;;;;56.63;7.43;;;;;;;26.37;28.36;99503.00;5333450;26;20012;-70
2024/04/11 11:11:44;;;;;;;65.40;8.32;;;;;;;25.87;28.23;99497.13;5328726;26;20656;-68
2024/04/11 11:14:11;;;;;;;67.88;8.48;;;;;;;25.99;28.80;99504.56;5331806;26;20029;-69
2024/04/11 11:16:38;;;;;;;70.80;8.48;;;;;;;25.88;29.54;99493.50;5327804;26;20436;-70
2024/04/11 11:19:04;;;;;;;49.85;6.80;;;;;;;25.33;29.84;99502.84;5329402;26;20628;-71
2024/04/11 11:21:32;;;;;;;71.80;8.60;;;;;;;26.99;28.44;99491.31;5332500;26;20409;-71
2024/04/11 11:24:01;;;;;;;49.42;7.57;;;;;;;26.52;29.95;99493.44;5334895;26;19997;-70
2024/04/11 11:26:35;;;;;;;42.45;6.88;;;;;;;26.35;29.27;99491.53;5337666;26;20118;-70